Time;durP1;ratioP1;P1;durP2;ratioP2;P2;SDS_P1;SDS_P2;PMS_P1;PMS_P2;Temp;Humidity;BMP_temperature;BMP_pressure;BME280_temperature;BME280_humidity;BME280_pressure;Samples;Min_cycle;Max_cycle;Signal;HPM_P1;HPM_P2
2023/08/08 00:02:18;;;;;;;2.88;2.55;;;12.40;68.50;;;;;;6098762;23;20029;-92
2023/08/08 00:04:53;;;;;;;4.10;2.80;;;13.00;69.60;;;;;;6124381;23;20025;-93
2023/08/08 00:07:32;;;;;;;;;;;;;;;;;;;;;
2023/08/08 00:10:08;;;;;;;5.35;3.55;;;13.60;71.10;;;;;;6148758;23;20073;-93
2023/08/08 00:12:36;;;;;;;4.68;2.88;;;13.10;70.80;;;;;;6052876;23;20025;-93
2023/08/08 00:15:05;;;;;;;4.45;3.20;;;13.20;72.50;;;;;;6075960;23;20029;-94
2023/08/08 00:17:34;;;;;;;8.40;3.67;;;13.20;72.70;;;;;;6052465;23;20025;-93
2023/08/08 00:20:10;;;;;;;5.95;3.22;;;13.20;73.00;;;;;;6076241;23;20411;-93
2023/08/08 00:22:41;;;;;;;5.35;3.33;;;13.20;74.10;;;;;;6077483;23;20311;-92
2023/08/08 00:25:09;;;;;;;6.10;3.28;;;13.30;74.80;;;;;;6098728;23;20029;-91
2023/08/08 00:27:44;;;;;;;5.13;3.10;;;13.20;75.00;;;;;;6122759;23;20438;-93
2023/08/08 00:30:28;;;;;;;;;;;;;;;;;;;;;
2023/08/08 00:33:08;;;;;;;3.20;2.90;;;13.20;77.00;;;;;;6124554;23;20022;-93
2023/08/08 00:35:46;;;;;;;;;;;;;;;;;;;;;
2023/08/08 00:38:33;;;;;;;4.47;3.55;;;13.20;78.30;;;;;;6123324;23;20439;-94
2023/08/08 00:41:01;;;;;;;5.72;3.80;;;13.60;79.00;;;;;;6079301;23;20022;-93
2023/08/08 00:43:32;;;;;;;4.30;3.85;;;13.20;80.10;;;;;;6073757;23;20101;-93
2023/08/08 00:46:00;;;;;;;5.13;3.80;;;13.30;80.60;;;;;;6099071;23;20053;-93
2023/08/08 00:48:40;;;;;;;5.40;3.72;;;12.80;82.50;;;;;;6074742;23;20018;-93
2023/08/08 00:51:17;;;;;;;9.38;4.68;;;13.30;82.30;;;;;;6123594;23;20475;-93
2023/08/08 00:53:47;;;;;;;4.43;3.85;;;13.40;83.00;;;;;;6078164;23;20079;-93
2023/08/08 00:56:24;;;;;;;4.53;3.58;;;13.30;83.10;;;;;;6103665;23;20021;-92
2023/08/08 00:58:50;;;;;;;5.22;3.53;;;13.30;83.90;;;;;;6103245;23;20014;-92
2023/08/08 01:01:39;;;;;;;;;;;;;;;;;;;;;
2023/08/08 01:04:20;;;;;;;7.50;3.90;;;12.60;84.90;;;;;;6106394;23;20017;-93
2023/08/08 01:06:56;;;;;;;6.40;4.53;;;13.40;85.50;;;;;;6105038;23;20056;-92
2023/08/08 01:09:38;;;;;;;5.00;3.72;;;13.30;85.90;;;;;;6128326;23;20472;-93
2023/08/08 01:12:08;;;;;;;6.53;3.95;;;13.40;87.30;;;;;;6105258;23;20080;-92
2023/08/08 01:15:05;;;;;;;5.93;3.95;;;13.40;88.60;;;;;;6106355;23;20043;-93
2023/08/08 01:17:38;;;;;;;5.97;3.90;;;13.40;89.70;;;;;;6105034;23;20119;-92
2023/08/08 01:20:10;;;;;;;6.15;4.43;;;13.30;89.90;;;;;;6106027;23;20056;-92
2023/08/08 01:23:05;;;;;;;6.45;3.90;;;13.30;89.60;;;;;;6082270;23;20100;-93
2023/08/08 01:25:40;;;;;;;6.38;3.92;;;12.60;90.10;;;;;;6105279;23;20014;-93
2023/08/08 01:28:35;;;;;;;6.55;4.03;;;12.60;89.90;;;;;;6105931;23;20163;-92
2023/08/08 01:31:09;;;;;;;;;;;13.20;90.30;;;;;;6106882;23;20027;-93
2023/08/08 01:33:41;;;;;;;5.47;4.68;;;13.20;94.60;;;;;;6178993;23;20478;-92
2023/08/08 01:36:26;;;;;;;5.90;4.30;;;13.30;91.00;;;;;;6106812;23;20013;-93
2023/08/08 01:39:09;;;;;;;7.28;4.32;;;13.20;91.40;;;;;;6105459;23;20020;-92
2023/08/08 01:41:44;;;;;;;5.45;4.30;;;13.10;91.10;;;;;;6105330;23;20026;-92
2023/08/08 01:44:18;;;;;;;7.43;4.50;;;13.10;91.50;;;;;;6106076;23;20491;-93
2023/08/08 01:46:47;;;;;;;5.18;4.05;;;13.10;92.00;;;;;;6105137;23;20018;-93
2023/08/08 01:49:26;;;;;;;6.25;4.20;;;13.10;92.20;;;;;;6105703;23;20088;-93
2023/08/08 01:51:56;;;;;;;6.38;3.70;;;13.10;92.70;;;;;;6105775;23;20041;-92
2023/08/08 01:54:36;;;;;;;6.38;4.70;;;13.10;93.20;;;;;;6123923;23;20017;-93
2023/08/08 01:57:13;;;;;;;;;;;;;;;;;;;;;
2023/08/08 01:59:59;;;;;;;8.38;4.30;;;13.10;94.30;;;;;;6125917;23;20024;-93
2023/08/08 02:02:25;;;;;;;;;;;13.10;94.60;;;;;;6079128;23;20018;-92
2023/08/08 02:04:53;;;;;;;6.57;4.97;;;13.10;97.30;;;;;;6125392;23;19948;-92
2023/08/08 02:07:32;;;;;;;5.38;4.82;;;12.50;94.50;;;;;;6100333;23;20080;-92
2023/08/08 02:10:14;;;;;;;6.75;4.22;;;13.20;94.90;;;;;;6077074;23;20026;-93
2023/08/08 02:12:45;;;;;;;5.60;4.50;;;13.00;95.10;;;;;;6080196;23;20073;-93
2023/08/08 02:15:17;;;;;;;6.05;4.45;;;13.10;95.60;;;;;;6102123;23;20045;-92
2023/08/08 02:17:49;;;;;;;5.72;4.47;;;12.70;95.60;;;;;;6101442;23;20454;-92
2023/08/08 02:20:18;;;;;;;4.75;4.13;;;13.00;96.20;;;;;;6124792;23;20018;-92
2023/08/08 02:22:51;;;;;;;6.47;4.82;;;13.00;96.50;;;;;;6100632;23;20056;-92
2023/08/08 02:25:19;;;;;;;13.07;4.80;;;13.00;97.10;;;;;;6077118;23;20026;-92
2023/08/08 02:27:45;;;;;;;9.80;4.93;;;12.10;97.40;;;;;;6099720;23;20045;-92
2023/08/08 02:30:35;;;;;;;6.63;5.00;;;13.00;97.80;;;;;;6076455;23;20014;-92
2023/08/08 02:33:16;;;;;;;;;;;;;;;;;;;;;
2023/08/08 02:36:05;;;;;;;9.63;4.95;;;13.40;98.30;;;;;;6080214;23;20036;-92
2023/08/08 02:38:53;;;;;;;7.00;4.60;;;13.00;98.30;;;;;;6060186;23;20447;-92
2023/08/08 02:41:28;;;;;;;8.80;4.78;;;13.10;98.50;;;;;;6081035;23;20097;-91
2023/08/08 02:44:04;;;;;;;8.55;5.80;;;13.00;98.50;;;;;;6100544;23;20077;-92
2023/08/08 02:46:43;;;;;;;;;;;;;;;;;;;;;
2023/08/08 02:49:12;;;;;;;7.15;5.18;;;13.40;98.80;;;;;;6123850;23;20022;-92
2023/08/08 02:51:46;;;;;;;5.40;4.82;;;13.00;98.80;;;;;;6099315;23;20476;-92
2023/08/08 02:54:30;;;;;;;7.57;4.80;;;12.90;98.90;;;;;;6123912;23;20018;-93
2023/08/08 02:56:59;;;;;;;7.10;5.82;;;13.00;99.50;;;;;;6124380;23;20076;-93
2023/08/08 02:59:31;;;;;;;8.95;5.10;;;13.10;99.40;;;;;;6123851;23;20617;-93
2023/08/08 03:02:05;;;;;;;6.32;4.60;;;12.90;99.80;;;;;;6076666;23;20029;-92
2023/08/08 03:04:36;;;;;;;7.28;4.70;;;13.00;99.80;;;;;;6099760;23;20097;-93
2023/08/08 03:07:29;;;;;;;7.75;5.70;;;13.00;99.90;;;;;;6099852;23;20406;-94
2023/08/08 03:10:00;;;;;;;8.95;5.18;;;12.60;99.90;;;;;;6100936;23;20020;-92
2023/08/08 03:12:26;;;;;;;6.03;4.88;;;13.00;99.90;;;;;;6075799;23;20076;-93
2023/08/08 03:14:56;;;;;;;9.80;5.53;;;13.00;99.90;;;;;;6075864;23;20018;-93
2023/08/08 03:20:23;;;;;;;;;;;;;;;;;;;;;
2023/08/08 03:22:49;;;;;;;7.63;5.00;;;13.10;99.90;;;;;;6123345;23;20014;-91
2023/08/08 03:25:15;;;;;;;8.93;4.53;;;12.90;99.90;;;;;;6099619;23;20075;-93
2023/08/08 03:27:46;;;;;;;8.82;5.15;;;12.70;99.90;;;;;;6099666;23;20049;-93
2023/08/08 03:30:22;;;;;;;;;;;;;;;;;;;;;
2023/08/08 03:32:51;;;;;;;6.22;3.60;;;12.90;99.90;;;;;;6124757;23;20088;-92
2023/08/08 03:35:19;;;;;;;6.97;4.25;;;13.00;99.90;;;;;;6099496;23;20105;-92
2023/08/08 03:37:45;;;;;;;5.57;4.38;;;12.90;99.90;;;;;;6098809;23;20020;-92
2023/08/08 03:40:14;;;;;;;7.35;4.28;;;12.90;99.90;;;;;;6099202;23;20045;-93
2023/08/08 03:42:43;;;;;;;5.40;3.97;;;12.80;99.90;;;;;;6123543;23;20377;-93
2023/08/08 03:45:09;;;;;;;9.43;3.92;;;12.50;99.90;;;;;;6099295;23;20063;-92
2023/08/08 03:47:51;;;;;;;5.78;4.07;;;13.00;99.90;;;;;;6123327;23;20028;-92
2023/08/08 03:50:20;;;;;;;5.10;4.03;;;13.10;99.90;;;;;;6123630;23;20018;-92
2023/08/08 03:52:56;;;;;;;4.60;3.78;;;12.10;99.90;;;;;;6099123;23;20025;-93
2023/08/08 03:55:22;;;;;;;5.97;4.50;;;13.30;99.90;;;;;;6076566;23;20053;-93
2023/08/08 03:57:59;;;;;;;6.32;3.92;;;13.00;99.90;;;;;;6099398;23;20030;-93
2023/08/08 04:00:28;;;;;;;5.90;3.50;;;13.10;99.90;;;;;;6076622;23;20068;-93
2023/08/08 04:03:05;;;;;;;7.15;4.00;;;13.10;99.90;;;;;;6123335;23;20102;-93
2023/08/08 04:05:33;;;;;;;5.53;3.47;;;12.30;99.90;;;;;;6099658;23;20124;-93
2023/08/08 04:08:09;;;;;;;7.22;3.15;;;13.10;99.90;;;;;;6053128;23;20014;-93
2023/08/08 04:10:38;;;;;;;4.95;3.33;;;13.20;99.90;;;;;;6077622;23;20025;-90
2023/08/08 04:13:09;;;;;;;4.38;3.15;;;13.10;99.90;;;;;;6101472;23;20046;-93
2023/08/08 04:15:35;;;;;;;6.25;3.20;;;13.10;99.90;;;;;;6076083;23;20513;-92
2023/08/08 04:18:06;;;;;;;5.93;3.33;;;13.10;99.90;;;;;;6098487;23;20026;-93
2023/08/08 04:20:34;;;;;;;6.55;3.90;;;13.10;99.90;;;;;;6124029;23;20470;-93
2023/08/08 04:23:25;;;;;;;4.93;2.72;;;13.20;99.90;;;;;;6098678;23;20025;-92
2023/08/08 04:26:06;;;;;;;;;;;;;;;;;;;;;
2023/08/08 04:28:34;;;;;;;5.60;2.83;;;13.10;99.70;;;;;;6101247;23;20018;-93
2023/08/08 04:31:23;;;;;;;4.95;2.70;;;13.10;99.20;;;;;;6098914;23;20014;-93
2023/08/08 04:34:00;;;;;;;6.18;2.45;;;13.10;98.80;;;;;;6080968;23;20390;-93
2023/08/08 04:36:37;;;;;;;;;;;;;;;;;;;;;
2023/08/08 04:39:06;;;;;;;6.47;2.65;;;13.10;98.20;;;;;;6124271;23;20017;-93
2023/08/08 04:42:01;;;;;;;7.23;3.00;;;13.10;98.10;;;;;;6100559;23;20089;-94
2023/08/08 04:44:29;;;;;;;7.00;2.38;;;12.00;97.70;;;;;;6089017;23;20246;-92
2023/08/08 04:47:05;;;;;;;3.65;2.45;;;13.00;97.60;;;;;;6076269;23;20346;-92
2023/08/08 04:49:49;;;;;;;4.22;2.55;;;12.60;97.40;;;;;;6100743;23;20021;-92
2023/08/08 04:52:20;;;;;;;7.18;2.92;;;12.50;96.90;;;;;;6101523;23;20101;-91
2023/08/08 04:54:48;;;;;;;5.53;2.30;;;13.70;97.00;;;;;;6076264;23;20022;-92
2023/08/08 04:57:28;;;;;;;6.75;2.83;;;13.20;96.70;;;;;;6101496;23;20022;-91
2023/08/08 05:00:04;;;;;;;5.97;2.88;;;13.90;96.80;;;;;;6077517;23;20018;-92
2023/08/08 05:02:43;;;;;;;6.25;2.17;;;13.10;96.50;;;;;;6078910;23;20030;-91
2023/08/08 05:05:11;;;;;;;3.58;2.58;;;13.10;96.60;;;;;;6078574;23;20029;-92
2023/08/08 05:07:46;;;;;;;10.23;2.97;;;13.10;96.70;;;;;;6077039;23;20029;-92
2023/08/08 05:10:30;;;;;;;6.88;2.08;;;12.60;96.20;;;;;;6100403;23;20018;-92
2023/08/08 05:13:06;;;;;;;4.38;2.47;;;13.20;96.20;;;;;;6100516;23;20022;-92
2023/08/08 05:15:46;;;;;;;5.05;2.00;;;13.30;93.80;;;;;;6101001;23;20105;-92
2023/08/08 05:18:31;;;;;;;6.75;2.22;;;13.40;93.20;;;;;;6103142;23;20056;-92
2023/08/08 05:21:02;;;;;;;7.38;2.30;;;13.40;92.30;;;;;;6125256;23;20025;-92
2023/08/08 05:23:35;;;;;;;5.03;2.10;;;13.70;91.30;;;;;;6079008;23;20485;-93
2023/08/08 05:26:12;;;;;;;5.60;2.13;;;13.80;90.00;;;;;;6101150;23;20021;-93
2023/08/08 05:28:40;;;;;;;3.35;2.10;;;13.80;87.60;;;;;;6077549;23;20080;-92
2023/08/08 05:31:15;;;;;;;5.78;1.90;;;13.10;85.80;;;;;;6100691;23;20446;-92
2023/08/08 05:33:47;;;;;;;4.25;2.10;;;14.10;86.50;;;;;;6101414;23;20100;-94
2023/08/08 05:36:31;;;;;;;;;;;;;;;;;;;;;
2023/08/08 05:39:10;;;;;;;;;;;14.20;84.90;;;;;;6149970;23;20022;-91
2023/08/08 05:41:36;;;;;;;5.38;1.60;;;14.40;83.50;;;;;;6102284;23;19952;-88
2023/08/08 05:44:05;;;;;;;5.70;2.80;;;14.60;80.50;;;;;;6126028;23;20048;-93
2023/08/08 05:46:33;;;;;;;11.07;2.28;;;14.70;77.60;;;;;;6100017;23;20627;-93
2023/08/08 05:49:12;;;;;;;;;;;;;;;;;;;;;
2023/08/08 05:51:40;;;;;;;3.20;1.83;;;14.80;71.50;;;;;;6125458;23;20458;-93
2023/08/08 05:54:11;;;;;;;3.53;1.45;;;14.80;70.50;;;;;;6104713;23;20446;-93
2023/08/08 05:56:39;;;;;;;4.78;2.05;;;14.80;69.60;;;;;;6130365;23;20500;-89
2023/08/08 05:59:16;;;;;;;4.07;1.98;;;15.00;69.30;;;;;;6080747;23;20014;-88
2023/08/08 06:01:45;;;;;;;5.25;2.42;;;15.10;66.40;;;;;;6105713;23;20028;-89
2023/08/08 06:04:14;;;;;;;2.63;1.42;;;15.20;62.80;;;;;;6130443;23;20026;-91
2023/08/08 06:06:48;;;;;;;5.80;1.60;;;15.20;58.10;;;;;;6106343;23;20013;-90
2023/08/08 06:09:46;;;;;;;6.47;1.55;;;15.40;54.40;;;;;;6086696;23;20516;-91
2023/08/08 06:12:32;;;;;;;3.78;1.48;;;15.40;53.50;;;;;;6083278;23;20582;-91
2023/08/08 06:14:58;;;;;;;3.85;1.77;;;15.50;53.10;;;;;;6106557;23;20017;-92
2023/08/08 06:17:34;;;;;;;4.03;1.67;;;15.60;52.10;;;;;;6107722;23;20465;-92
2023/08/08 06:28:04;;;;;;;4.72;1.52;;;16.00;42.20;;;;;;6155858;23;19943;-91
2023/08/08 06:30:33;;;;;;;4.97;2.00;;;16.40;38.30;;;;;;6086444;23;20022;-91
2023/08/08 06:33:19;;;;;;;6.30;1.80;;;16.20;33.60;;;;;;6128378;23;20454;-90
2023/08/08 06:35:45;;;;;;;6.68;1.63;;;16.40;18.20;;;;;;6104973;23;20461;-89
2023/08/08 06:38:34;;;;;;;2.95;1.90;;;16.30;26.20;;;;;;6130062;23;20025;-90
2023/08/08 06:41:14;;;;;;;3.92;1.45;;;16.40;22.40;;;;;;6087826;23;20029;-93
2023/08/08 06:43:54;;;;;;;4.05;1.58;;;16.40;21.00;;;;;;6104843;23;20342;-94
2023/08/08 06:47:00;;;;;;;;;;;;;;;;;;;;;
2023/08/08 06:49:28;;;;;;;4.03;1.15;;;16.50;1.00;;;;;;6107440;23;20024;-94
2023/08/08 06:51:54;;;;;;;8.32;2.00;;;16.40;10.80;;;;;;6129567;23;20382;-90
2023/08/08 06:54:23;;;;;;;6.82;1.80;;;16.50;11.10;;;;;;6099350;23;20022;-95
2023/08/08 06:56:52;;;;;;;2.83;1.50;;;16.50;10.10;;;;;;6077419;23;20069;-93
2023/08/08 06:59:31;;;;;;;6.22;1.92;;;16.50;11.80;;;;;;6099993;23;20050;-92
2023/08/08 07:02:17;;;;;;;6.55;1.55;;;17.80;5.70;;;;;;6078266;23;20096;-94
2023/08/08 07:08:42;;;;;;;4.55;1.55;;;16.80;1.00;;;;;;6082341;23;20029;-92
2023/08/08 07:11:52;;;;;;;;;;;;;;;;;;;;;
2023/08/08 07:18:37;;;;;;;;;;;;;;;;;;;;;
2023/08/08 07:31:47;;;;;;;2.20;0.88;;;16.60;1.00;;;;;;6041979;23;20058;-94
2023/08/08 07:35:04;;;;;;;;;;;;;;;;;;;;;
2023/08/08 07:38:17;;;;;;;2.88;1.08;;;18.60;1.00;;;;;;6126663;23;20018;-95
2023/08/08 07:41:00;;;;;;;6.65;1.95;;;17.30;1.00;;;;;;5988684;23;20023;-94
2023/08/08 07:43:47;;;;;;;;;;;;;;;;;;;;;
2023/08/08 07:46:58;;;;;;;6.93;1.25;;;16.70;1.00;;;;;;6080622;23;20058;-96
2023/08/08 07:49:38;;;;;;;4.10;1.17;;;16.10;1.00;;;;;;6101579;23;20022;-96
2023/08/08 07:52:27;;;;;;;5.30;2.00;;;17.00;1.00;;;;;;6102803;23;20206;-94
2023/08/08 08:03:37;;;;;;;;;;;;;;;;;;;;;
2023/08/08 08:10:15;;;;;;;6.40;1.67;;;16.60;1.00;;;;;;6055518;23;20021;-96
2023/08/08 08:23:34;;;;;;;;;;;;;;;;;;;;;
2023/08/08 08:27:02;;;;;;;3.55;1.38;;;16.70;1.00;;;;;;6017023;23;20492;-94
2023/08/08 08:30:30;;;;;;;;;;;;;;;;;;;;;
2023/08/08 08:33:07;;;;;;;3.45;1.13;;;16.90;1.00;;;;;;6037412;23;20027;-90
2023/08/08 08:40:21;;;;;;;3.35;1.23;;;16.10;1.00;;;;;;6041530;23;20022;-95
2023/08/08 08:42:57;;;;;;;3.70;1.23;;;16.90;1.00;;;;;;6118720;23;20323;-93
2023/08/08 08:46:19;;;;;;;;;;;;;;;;;;;;;
2023/08/08 08:49:48;;;;;;;4.47;1.33;;;17.00;1.00;;;;;;6126876;23;20014;-92
2023/08/08 08:55:29;;;;;;;3.72;1.10;;;16.90;1.00;;;;;;6109876;23;20354;-87
2023/08/08 08:57:55;;;;;;;3.35;2.00;;;16.90;1.00;;;;;;6079680;23;20018;-90
2023/08/08 09:00:26;;;;;;;6.90;2.35;;;16.70;1.00;;;;;;6101382;23;20018;-90
2023/08/08 09:03:05;;;;;;;6.05;1.70;;;16.40;1.00;;;;;;6102721;23;20053;-91
2023/08/08 09:05:35;;;;;;;3.75;1.90;;;16.20;9.70;;;;;;6101354;23;20022;-93
2023/08/08 09:12:14;;;;;;;4.35;1.50;;;16.50;33.30;;;;;;6104900;23;20399;-94
2023/08/08 09:16:12;;;;;;;;;;;;;;;;;;;;;
2023/08/08 09:22:17;;;;;;;7.68;1.98;;;15.00;50.80;;;;;;6037270;23;20482;-96
2023/08/08 09:24:58;;;;;;;4.45;1.55;;;15.70;47.30;;;;;;5992645;23;20047;-90
2023/08/08 09:27:50;;;;;;;;;;;;;;;;;;;;;
2023/08/08 09:31:19;;;;;;;5.20;1.63;;;15.60;48.20;;;;;;6150861;23;20025;-95
2023/08/08 09:34:21;;;;;;;4.50;2.72;;;15.40;58.80;;;;;;6115441;23;20104;-94
2023/08/08 09:36:47;;;;;;;4.95;2.15;;;15.50;59.70;;;;;;6126917;23;20442;-88
2023/08/08 09:39:29;;;;;;;3.58;1.55;;;15.40;59.50;;;;;;6101762;23;20017;-92
2023/08/08 09:42:04;;;;;;;5.43;2.40;;;14.40;75.10;;;;;;6100741;23;20529;-93
2023/08/08 09:50:28;;;;;;;7.32;1.92;;;16.20;64.80;;;;;;6080394;23;20473;-94
2023/08/08 09:53:11;;;;;;;4.97;1.55;;;16.40;52.30;;;;;;6102191;23;20490;-93
2023/08/08 09:55:40;;;;;;;4.72;1.55;;;16.50;54.10;;;;;;6101344;23;20017;-93
2023/08/08 09:58:09;;;;;;;6.65;1.75;;;15.80;48.60;;;;;;6101532;23;20442;-91
2023/08/08 10:00:36;;;;;;;2.05;1.10;;;16.70;42.60;;;;;;6131597;23;20053;-95
2023/08/08 10:03:04;;;;;;;6.82;1.88;;;16.70;37.00;;;;;;6126470;23;20048;-94
2023/08/08 10:05:39;;;;;;;5.53;1.85;;;16.60;39.10;;;;;;6100633;23;20053;-91
2023/08/08 10:08:07;;;;;;;5.82;1.65;;;16.90;36.50;;;;;;6100842;23;20454;-91
2023/08/08 10:10:37;;;;;;;6.70;1.77;;;16.90;36.20;;;;;;6103574;23;20477;-91
2023/08/08 10:13:03;;;;;;;3.33;1.52;;;17.00;28.50;;;;;;6101447;23;20581;-90
2023/08/08 10:15:29;;;;;;;5.82;1.42;;;17.20;28.20;;;;;;6100499;23;20450;-90
2023/08/08 10:18:12;;;;;;;6.40;1.48;;;17.30;24.40;;;;;;6101898;23;20029;-96
2023/08/08 10:21:51;;;;;;;5.00;1.45;;;17.00;2.60;;;;;;6106245;23;20092;-96
2023/08/08 10:25:00;;;;;;;5.45;2.35;;;17.20;5.80;;;;;;6124972;23;20119;-93
2023/08/08 10:28:07;;;;;;;5.45;1.85;;;16.50;1.00;;;;;;6076492;23;20026;-93
2023/08/08 10:31:04;;;;;;;2.72;1.60;;;17.40;1.00;;;;;;6060471;23;20347;-91
2023/08/08 10:34:00;;;;;;;2.92;1.45;;;17.50;1.00;;;;;;6073853;23;20037;-96
2023/08/08 10:36:26;;;;;;;4.18;1.67;;;17.70;1.00;;;;;;6076193;23;20098;-89
2023/08/08 10:38:59;;;;;;;3.90;1.20;;;17.80;1.00;;;;;;6101913;23;20046;-91
2023/08/08 10:41:27;;;;;;;6.38;1.92;;;17.80;1.00;;;;;;6055048;23;20095;-89
2023/08/08 10:44:00;;;;;;;4.53;1.42;;;18.10;1.00;;;;;;6069548;23;20073;-87
2023/08/08 10:46:38;;;;;;;4.70;1.42;;;18.20;1.00;;;;;;6093907;23;20165;-92
2023/08/08 10:49:05;;;;;;;7.57;1.30;;;18.00;1.00;;;;;;6093893;23;20418;-91
2023/08/08 10:51:45;;;;;;;6.80;1.90;;;18.00;1.00;;;;;;6069440;23;20101;-91
2023/08/08 10:54:27;;;;;;;2.33;1.20;;;18.10;1.00;;;;;;6095626;23;20015;-88
2023/08/08 10:56:59;;;;;;;8.63;1.45;;;18.20;1.00;;;;;;6094034;23;20029;-92
2023/08/08 10:59:29;;;;;;;6.70;1.55;;;18.30;1.00;;;;;;6070160;23;20021;-92
2023/08/08 11:01:56;;;;;;;12.10;2.03;;;19.10;1.00;;;;;;6094831;23;20021;-93
2023/08/08 11:04:25;;;;;;;2.13;1.52;;;18.50;1.00;;;;;;6046929;23;20022;-94
2023/08/08 11:06:54;;;;;;;3.72;1.60;;;18.50;1.00;;;;;;6093514;23;20506;-92
2023/08/08 11:09:36;;;;;;;;;;;;;;;;;;;;;
2023/08/08 11:12:26;;;;;;;4.30;2.13;;;17.90;99.90;;;;;;6107491;23;20046;-94
2023/08/08 11:14:55;;;;;;;8.07;1.80;;;18.30;99.90;;;;;;6078801;23;20027;-95
2023/08/08 11:17:26;;;;;;;;;;;18.00;99.90;;;;;;6073776;23;20053;-93
2023/08/08 11:20:02;;;;;;;6.55;1.80;;;18.00;99.90;;;;;;6048365;23;20247;-96
2023/08/08 11:22:27;;;;;;;3.42;1.27;;;17.90;99.90;;;;;;6097055;23;20109;-95
2023/08/08 11:25:02;;;;;;;3.13;1.48;;;17.80;99.90;;;;;;6111010;23;20025;-93
2023/08/08 11:27:34;;;;;;;5.30;1.65;;;17.70;99.90;;;;;;6111412;23;20021;-93
2023/08/08 11:30:03;;;;;;;3.38;1.70;;;16.90;99.90;;;;;;6058129;23;20022;-95
2023/08/08 11:32:55;;;;;;;10.55;2.65;;;17.90;99.90;;;;;;6083761;23;20018;-95
2023/08/08 11:35:24;;;;;;;8.25;1.60;;;18.10;99.90;;;;;;6127239;23;20028;-91
2023/08/08 11:37:52;;;;;;;8.75;3.67;;;17.10;99.90;;;;;;6127759;23;20025;-91
2023/08/08 11:40:24;;;;;;;2.63;1.58;;;18.40;99.90;;;;;;6128653;23;20009;-93
2023/08/08 11:42:51;;;;;;;3.40;1.40;;;18.50;99.90;;;;;;6104247;23;20028;-96
2023/08/08 11:45:18;;;;;;;3.65;1.20;;;18.60;99.90;;;;;;6082396;23;20017;-92
2023/08/08 11:47:53;;;;;;;3.05;1.25;;;18.70;99.90;;;;;;6106059;23;20022;-88
2023/08/08 11:50:22;;;;;;;2.53;1.15;;;18.70;99.90;;;;;;6129175;23;20022;-92
2023/08/08 11:52:59;;;;;;;3.97;1.73;;;17.60;99.90;;;;;;6108864;23;20017;-89
2023/08/08 11:55:32;;;;;;;2.28;1.10;;;18.70;99.90;;;;;;6106415;23;20068;-95
2023/08/08 11:58:00;;;;;;;2.88;1.05;;;19.90;27.60;;;;;;6081590;23;20072;-93
2023/08/08 12:00:30;;;;;;;4.82;1.35;;;19.00;1.00;;;;;;6128875;23;20013;-92
2023/08/08 12:02:57;;;;;;;3.88;1.40;;;19.10;1.00;;;;;;6104327;23;20021;-93
2023/08/08 12:05:25;;;;;;;3.03;1.27;;;19.20;1.00;;;;;;6128784;23;20017;-93
2023/08/08 12:07:56;;;;;;;5.25;1.50;;;18.60;99.90;;;;;;6080699;23;20021;-95
2023/08/08 12:10:44;;;;;;;;;;;;;;;;;;;;;
2023/08/08 12:13:28;;;;;;;2.42;1.13;;;19.60;1.00;;;;;;6131087;23;20025;-95
2023/08/08 12:16:04;;;;;;;3.85;1.33;;;19.70;99.90;;;;;;6128930;23;20076;-92
2023/08/08 12:18:30;;;;;;;3.85;1.35;;;19.70;99.90;;;;;;6102790;23;20081;-90
2023/08/08 12:20:56;;;;;;;3.88;1.30;;;19.60;99.90;;;;;;6127281;23;20045;-88
2023/08/08 12:23:21;;;;;;;3.25;1.15;;;19.60;99.90;;;;;;6127530;23;20017;-89
2023/08/08 12:25:51;;;;;;;3.38;1.58;;;19.30;1.00;;;;;;6126985;23;20093;-90
2023/08/08 12:28:16;;;;;;;7.28;1.75;;;19.20;1.00;;;;;;6102539;23;20109;-90
2023/08/08 12:30:42;;;;;;;2.88;1.10;;;19.00;1.00;;;;;;6125713;23;20057;-90
2023/08/08 12:33:08;;;;;;;4.35;1.20;;;19.00;99.90;;;;;;6102498;23;20028;-90
2023/08/08 12:35:44;;;;;;;3.42;0.90;;;19.00;99.90;;;;;;6126672;23;20025;-90
2023/08/08 12:38:21;;;;;;;4.93;1.27;;;18.80;1.00;;;;;;6083488;23;20029;-90
2023/08/08 12:40:47;;;;;;;8.75;1.27;;;19.30;1.00;;;;;;6079880;23;20104;-90
2023/08/08 12:43:19;;;;;;;;;;;19.30;99.90;;;;;;6102894;23;20018;-91
2023/08/08 12:45:48;;;;;;;3.70;1.30;;;19.50;99.90;;;;;;6158745;23;19995;-93
2023/08/08 12:48:16;;;;;;;2.67;1.10;;;19.60;99.90;;;;;;6105750;23;20100;-86
2023/08/08 12:50:42;;;;;;;2.17;0.98;;;20.70;99.90;;;;;;6077980;23;20447;-90
2023/08/08 12:53:08;;;;;;;3.88;1.20;;;19.00;99.90;;;;;;6102288;23;20545;-85
2023/08/08 12:55:34;;;;;;;3.70;0.95;;;19.60;1.00;;;;;;6101798;23;20398;-87
2023/08/08 12:58:04;;;;;;;2.80;1.05;;;19.60;1.00;;;;;;6101573;23;20025;-87
2023/08/08 13:00:30;;;;;;;3.33;0.93;;;19.50;99.90;;;;;;6127120;23;20023;-84
2023/08/08 13:02:59;;;;;;;4.13;0.85;;;19.40;1.00;;;;;;6152780;23;20104;-84
2023/08/08 13:05:24;;;;;;;5.57;1.27;;;19.60;99.90;;;;;;6101999;23;20112;-85
2023/08/08 13:07:50;;;;;;;2.65;1.13;;;19.30;99.90;;;;;;6126224;23;20049;-84
2023/08/08 13:10:19;;;;;;;5.18;1.13;;;18.80;99.90;;;;;;6103280;23;20076;-85
2023/08/08 13:12:47;;;;;;;2.75;1.52;;;19.40;99.90;;;;;;6126681;23;20013;-88
2023/08/08 13:15:13;;;;;;;1.17;0.82;;;18.70;99.90;;;;;;6103506;23;20037;-84
2023/08/08 13:17:39;;;;;;;4.55;1.00;;;19.60;99.90;;;;;;6078839;23;20017;-84
2023/08/08 13:20:05;;;;;;;3.83;1.25;;;19.70;99.90;;;;;;6126930;23;20048;-85
2023/08/08 13:22:31;;;;;;;2.63;1.33;;;19.80;99.90;;;;;;6079059;23;20024;-85
2023/08/08 13:24:57;;;;;;;4.63;1.77;;;19.70;99.90;;;;;;6127063;23;20053;-84
2023/08/08 13:27:22;;;;;;;2.92;1.77;;;19.50;99.90;;;;;;6031488;23;1164704;-87
2023/08/08 13:29:48;;;;;;;4.55;1.75;;;19.30;1.00;;;;;;6104447;23;20022;-85
2023/08/08 13:32:14;;;;;;;6.50;1.40;;;19.30;54.10;;;;;;6105169;23;20118;-85
2023/08/08 13:34:40;;;;;;;6.53;1.33;;;19.30;82.90;;;;;;6128840;23;20056;-84
2023/08/08 13:37:05;;;;;;;4.82;1.23;;;19.30;1.00;;;;;;6129112;23;20785;-85
2023/08/08 13:39:31;;;;;;;2.80;1.60;;;19.40;99.90;;;;;;6080570;23;20096;-86
2023/08/08 13:42:02;;;;;;;2.85;1.30;;;19.40;99.90;;;;;;6081292;23;20152;-87
2023/08/08 13:44:31;;;;;;;5.22;1.42;;;19.20;99.90;;;;;;6138491;23;20021;-87
2023/08/08 13:46:57;;;;;;;6.63;1.95;;;19.10;1.00;;;;;;6113844;23;20366;-88
2023/08/08 13:49:27;;;;;;;5.80;1.50;;;18.40;1.00;;;;;;6112834;23;20028;-88
2023/08/08 13:52:00;;;;;;;8.00;2.03;;;19.20;99.90;;;;;;6083769;23;20021;-85
2023/08/08 13:54:26;;;;;;;4.70;1.48;;;19.10;60.80;;;;;;6104932;23;20022;-85
2023/08/08 13:56:54;;;;;;;1.15;0.95;;;19.00;21.00;;;;;;6079269;23;20144;-86
2023/08/08 13:59:20;;;;;;;4.32;1.50;;;18.90;99.90;;;;;;6104461;23;20049;-87
2023/08/08 14:01:46;;;;;;;3.25;0.90;;;18.90;1.00;;;;;;6129361;23;20069;-86
2023/08/08 14:04:11;;;;;;;3.30;1.67;;;18.80;1.00;;;;;;6080337;23;20080;-86
2023/08/08 14:06:37;;;;;;;1.92;1.10;;;18.60;99.90;;;;;;6104181;23;20104;-86
2023/08/08 14:09:04;;;;;;;2.55;1.20;;;18.60;99.90;;;;;;6103551;23;20052;-86
2023/08/08 14:11:30;;;;;;;4.07;1.00;;;18.50;99.90;;;;;;6081155;23;20017;-86
2023/08/08 14:13:55;;;;;;;5.35;1.17;;;18.60;1.00;;;;;;6103677;23;20026;-87
2023/08/08 14:16:21;;;;;;;5.57;1.15;;;18.50;29.70;;;;;;6128663;23;20096;-86
2023/08/08 14:18:50;;;;;;;4.72;1.08;;;19.00;99.90;;;;;;6104572;23;20024;-87
2023/08/08 14:21:18;;;;;;;4.30;0.93;;;19.00;25.80;;;;;;6056598;23;20021;-86
2023/08/08 14:23:44;;;;;;;4.45;1.23;;;19.20;99.90;;;;;;6128314;23;20241;-86
2023/08/08 14:26:11;;;;;;;1.65;1.00;;;19.30;99.90;;;;;;6103541;23;20026;-86
2023/08/08 14:28:37;;;;;;;4.22;1.30;;;19.50;1.00;;;;;;6080029;23;20088;-85
2023/08/08 14:31:05;;;;;;;3.50;1.25;;;19.60;1.00;;;;;;6078931;23;20021;-85
2023/08/08 14:33:34;;;;;;;4.65;1.42;;;19.60;1.00;;;;;;6081534;23;20453;-86
2023/08/08 14:36:00;;;;;;;4.15;2.13;;;19.60;1.00;;;;;;6104077;23;20100;-86
2023/08/08 14:38:36;;;;;;;4.38;1.52;;;19.40;99.90;;;;;;6104847;23;20060;-86
2023/08/08 14:41:02;;;;;;;3.78;1.35;;;19.30;99.90;;;;;;6103365;23;20021;-86
2023/08/08 14:43:35;;;;;;;3.08;1.33;;;19.30;99.90;;;;;;6129173;23;20014;-86
2023/08/08 14:46:00;;;;;;;4.40;1.33;;;19.20;99.90;;;;;;6081688;23;20032;-87
2023/08/08 14:48:29;;;;;;;3.25;1.17;;;19.10;99.90;;;;;;6104611;23;20096;-87
2023/08/08 14:50:59;;;;;;;4.68;1.08;;;18.80;99.90;;;;;;6104358;23;20100;-86
2023/08/08 14:53:25;;;;;;;2.97;1.83;;;18.70;99.90;;;;;;6082558;23;20080;-91
2023/08/08 14:55:51;;;;;;;2.58;1.17;;;17.90;99.90;;;;;;6128810;23;20018;-91
2023/08/08 14:58:18;;;;;;;4.80;1.40;;;18.60;99.90;;;;;;6104626;23;20022;-93
2023/08/08 15:00:44;;;;;;;6.13;1.60;;;18.50;1.00;;;;;;6129619;23;20088;-93
2023/08/08 15:03:10;;;;;;;4.88;1.77;;;18.40;2.10;;;;;;6103933;23;20025;-90
2023/08/08 15:05:40;;;;;;;7.43;1.63;;;18.30;1.00;;;;;;6079495;23;20521;-92
2023/08/08 15:08:14;;;;;;;3.33;1.02;;;17.40;1.00;;;;;;6104347;23;20017;-91
2023/08/08 15:10:40;;;;;;;5.13;1.20;;;18.40;1.00;;;;;;6104591;23;20141;-91
2023/08/08 15:13:05;;;;;;;4.00;1.35;;;18.70;99.90;;;;;;6128427;23;20017;-92
2023/08/08 15:15:34;;;;;;;2.72;1.67;;;18.50;99.90;;;;;;6105479;23;20021;-90
2023/08/08 15:18:00;;;;;;;2.67;0.82;;;18.50;99.90;;;;;;6080990;23;20025;-90